Historyczne dane pomiarowe

Dodano dane terminowe – wersja testowa.

Dane z okresu 1951-2019

Wersja bazy: 1.34 [2019-03-16, lista zmian], aktualizacja planowana na 2019-04-15

Dane meteo z obszaru Polski uzyskane na podstawie danych udostępnionych przez Instytut Meteorologii i Gospodarki Wodnej – Państwowy Instytut Badawczy.

 

Wybierz Datę:    

       

TemperaturaWilgotnośćWiatrCiśnienieOpadyŚniegCzas trwania zjawisk
 Stacja t tx tn tng RH VA  wxwx mslp ppp RRR   cm mm wxwxwxwxwxwxwx
1987-08-14 12.2 16.0 7.6 4.5 84.8- 3.7 2.7---- 8.4------------
1987-08-13 12.8 19.5 6.1 3.5 75.0- 0.3 0.7---- 0.0------------
1987-08-12 11.5 17.5 6.1 4.5 81.3- 3.3 2.0---- 0.2------------
1987-08-11 12.7 17.2 9.6 6.5 83.5- 5.3 2.0---- 5.0------------
1987-08-10 13.6 19.5 12.4 12.5 89.5- 5.0 3.0---- 1.0------------
1987-08-09 17.0 23.5 12.4 6.0 67.0- 3.7 1.3---- 2.8------------
1987-08-08 14.8 21.0 8.6 5.5 71.3- 1.3 1.3---- 0.0------------
1987-08-07 9.8 15.6 4.6 1.5 87.8- 5.3 2.0---- 5.5------------
1987-08-06 11.5 15.3 8.6 7.5 72.0- 2.3 2.7---- 1.6------------
1987-08-05 12.1 18.0 6.6 3.0 80.3- 3.3 2.0---- 1.2------------
1987-08-04 14.3 17.4 13.1 9.8 83.0- 4.3 2.3---- 4.0------------
1987-08-03 14.5 19.4 9.5 6.5 75.0- 4.3 1.3---- 0.0------------
1987-08-02 14.1 19.0 11.5 10.5 79.0- 6.7 4.3---- 12.4------------
1987-08-01 15.2 20.0 12.1 10.5 84.0- 7.7 2.3---- 3.0------------
1987-07-31 15.6 21.1 13.4 14.0 90.3- 7.3 3.7---- 1.3------------
1987-07-30 17.6 24.0 10.1 6.5 75.0- 3.0 2.0---- 12.9------------
1987-07-29 14.3 19.4 9.1 8.9 78.3- 7.0 2.0---- 0.0------------
1987-07-28 13.1 17.0 12.0 11.5 88.0- 7.7 3.0---- 2.1------------
1987-07-27 12.2 17.0 7.2 8.5 70.3- 5.0 6.0---- 1.2------------
1987-07-26 12.1 15.9 10.8 11.2 89.0- 6.7 2.3---- 7.3------------
1987-07-25 16.5 22.5 14.6 11.5 90.3- 4.0 2.0---- 3.0------------
1987-07-24 19.5 26.0 16.9 14.0 82.5- 4.7 2.3---- 0.8------------
1987-07-23 19.7 26.4 13.1 10.0 78.3- 4.3 2.0---- 3.1------------
1987-07-22 18.1 23.0 15.1 16.0 81.5- 4.7 1.3---- 0.0------------
1987-07-21 19.2 24.5 13.1 9.5 76.0- 3.3 2.3---- 10.4------------
1987-07-20 17.8 22.0 15.1 15.2 84.0- 4.3 3.3---- 0.0------------
1987-07-19 20.1 23.7 18.2 18.4 81.8- 5.0 2.3---- 5.4------------
1987-07-18 22.7 28.5 17.7 14.0 77.8- 2.3 3.3---- 0.0------------
1987-07-17 21.8 29.9 17.2 14.1 74.8- 5.7 3.3---- 5.0------------
1987-07-16 19.7 27.2 12.6 10.0 69.5- 3.3 3.7---- 2.1------------
1987-07-15 17.0 23.2 10.4 7.5 67.0- 1.7 2.7---- 0.0------------
1987-07-14 15.3 21.0 8.1 5.3 67.0- 1.3 1.7---- 0.0------------
1987-07-13 17.3 22.5 14.1 12.8 74.3- 1.0 1.0---- 0.0------------
1987-07-12 19.8 28.0 14.8 10.5 71.5- 5.7 1.7---- 7.4------------
1987-07-11 16.6 24.0 8.1 5.5 67.3- 4.0 1.7---- 0.0------------
1987-07-10 14.3 18.5 9.6 8.2 78.3- 4.7 1.7---- 0.0------------
1987-07-09 16.9 23.5 14.5 7.7 93.8- 8.0 1.3---- 8.3------------
1987-07-08 21.5 28.5 14.1 12.0 68.5- 0.7 4.7---- 1.1------------
1987-07-07 20.3 27.2 11.4 6.5 54.8- 0.0 4.0---- 0.0------------
1987-07-06 18.0 24.2 11.1 8.0 65.5- 1.3 1.3---- 0.0------------
1987-07-05 15.6 19.8 12.2 8.5 73.0- 4.3 2.7---- 0.0------------
1987-07-04 17.9 23.4 11.4 7.6 75.3- 4.3 2.7---- 0.0------------
1987-07-03 17.8 22.1 14.5 12.5 81.0- 6.0 1.3---- 0.0------------
1987-07-02 16.9 22.3 15.2 16.1 93.3- 6.7 2.0---- 4.5------------
1987-07-01 23.7 30.4 19.1 14.5 80.5- 2.3 2.7---- 0.0------------
1987-06-30 23.5 30.3 16.4 12.5 69.3- 0.0 0.7---- 0.0------------
1987-06-29 21.0 26.5 15.6 11.5 76.5- 3.0 1.0---- 0.0------------
1987-06-28 18.0 24.0 9.7 7.5 79.5- 5.7 2.7---- 0.0------------
1987-06-27 16.3 20.6 15.6 6.0 93.0- 7.3 2.7---- 0.1------------
1987-06-26 17.5 23.6 9.5 6.5 71.3- 4.3 4.3---- 2.4------------
1987-06-25 14.4 17.3 12.6 12.0 77.8- 5.3 4.3---- 0.0------------
1987-06-24 14.9 20.0 11.1 7.5 79.5- 6.0 2.0---- 0.1------------
1987-06-23 15.5 20.0 12.5 12.0 81.0- 4.3 1.7---- 0.4------------
1987-06-22 15.5 19.5 12.6 11.5 94.3- 7.7 4.3---- 0.2------------
1987-06-21 16.4 23.8 10.6 8.1 83.0- 5.7 3.0---- 2.9------------
1987-06-20 15.5 21.0 9.0 5.3 71.8- 3.7 3.0---- 0.1------------
1987-06-19 12.7 17.5 7.4 6.0 73.5- 3.7 2.7---- 0.2------------
1987-06-18 10.5 14.0 6.1 3.0 82.8- 6.0 4.7---- 2.4------------
1987-06-17 11.4 15.6 7.8 6.1 73.5- 3.0 3.3---- 0.0------------
1987-06-16 12.7 24.0 9.6 11.2 90.3- 8.0 3.3---- 3.5------------
425.6 ms

 

Źródłem pochodzenia danych jest Instytut Meteorologii i Gospodarki Wodnej – Państwowy Instytut Badawczy. Dane Instytutu Meteorologii i Gospodarki Wodnej – Państwowego Instytutu Badawczego zostały przetworzone.

Dane źródłowe można odnaleźć na stronie https://dane.imgw.pl